Terminal Aerodrome Forecast
Issued by NWS Charleston, SC

Home | Current Version | Previous Version | Text Only | Print | Product List | Glossary On
Versions: 1 2 3 4 5 6 7 8 9 10 11 12 13 14 15 16 17 18 19 20 21
000
FTUS42 KCHS 041739
TAFSAV
TAF
KSAV 041739Z 0418/0518 25010KT P6SM SCT045 BKN150
     FM042000 21009KT P6SM VCTS SCT045CB BKN080
      TEMPO 0420/0424 3SM TSRA SCT025CB BKN045
     FM050000 20005KT P6SM SCT060 BKN150
     FM051500 24006KT P6SM SCT060 BKN120=

USA.gov is the U.S. government's official web portal to all federal, state and local government web resources and services.